Metar Cercanos

 

LEPA - Palma De Mallorc, Spain
Distance from station: ONO 38km
Actualización: 19/11/2018 01:30
Parcialmente nuboso
Parcialmente nuboso
 Viento del ENE
Viento: ENE 19 km/h
Temperatura: 15°C
Rocío: 13°C
Humedad: 88%
Barómetro: 1004 hPa
Clouds: Parcialmente nuboso
Visibility: 10 km
Cloud details: Parcialmente nuboso 792 m
2018/11/19 00:30 LEPA 190030Z 06010KT 9999 SCT026 15/13 Q1004 NOSIG
LEMH - Mahon/Menorca Is, Spain
Distance from station: ENE 105km
Actualización: 19/11/2018 01:30
Lluvia débil, Muy nuboso
Lluvia débil, Muy nuboso
 Viento del E
Viento: E 22 km/h
Temperatura: 14°C
Rocío: 12°C
Humedad: 88%
Barómetro: 1005 hPa
Resumen: Lluvia débil
Clouds: Muy nuboso
Visibility: 10 km
Cloud details: Parcialmente nuboso 579 m
Muy nuboso 823 m
2018/11/19 00:30 LEMH 190030Z AUTO 10012KT 9999 -RA SCT019/// BKN027/// 14/12 Q1005
 
LEIB - Ibiza/Es Codola, Spain
Distance from station: OSO 165km
Actualización: 19/11/2018 01:30
Lluvia débil, Parcialmente nuboso
Lluvia débil, Parcialmente nuboso
 Viento del E
Viento: E 22 km/h
Temperatura: 16°C
Rocío: 13°C
Humedad: 83%
Barómetro: 1003 hPa
Resumen: Lluvia débil
Clouds: Parcialmente nuboso
Visibility: 10 km
Cloud details: Few Clouds 427 m
Parcialmente nuboso 823 m
2018/11/19 00:30 LEIB 190030Z AUTO 08012KT 050V120 9999 -RA FEW014/// SCT027/// 16/13 Q1003
LEBL - Barcelona Airpor, Spain
Distance from station: NNO 225km
Actualización: 19/11/2018 01:30
Lluvia débil, Muy nuboso
Lluvia débil, Muy nuboso
 Viento del NE
Viento: NE 22 km/h
Temperatura: 13°C
Rocío: 11°C
Humedad: 88%
Barómetro: 1007 hPa
Resumen: Lluvia débil
Clouds: Muy nuboso
Visibility: 7 km
Cloud details: Parcialmente nuboso 457 m
Muy nuboso 762 m
2018/11/19 00:30 LEBL 190030Z 04012KT 7000 -RA SCT015 BKN025 13/11 Q1007 NOSIG
 
LEVC - Valencia (civ/Mi, Spain
Distance from station: NO 188km
Actualización: 19/11/2018 01:30
Lluvia débil, Parcialmente nuboso
Lluvia débil, Parcialmente nuboso
 Viento del NNE
Viento: NNE 13 km/h
Temperatura: 14°C
Rocío: 12°C
Humedad: 88%
Barómetro: 1004 hPa
Resumen: Lluvia débil
Clouds: Parcialmente nuboso
Visibility: 10 km
Cloud details: Few Clouds 610 m
Parcialmente nuboso 1067 m
2018/11/19 00:30 LEVC 190030Z 02007KT 350V060 9999 -RA FEW020TCU SCT035 14/12 Q1004 TEMPO 4000 SHRA
LEGE - Gerona/Costa Bra, Spain
Distance from station: N 276km
Actualización: 19/11/2018 01:30
Lluvia débil, Muy nuboso
Lluvia débil, Muy nuboso
 Viento del N
Viento: N 6 km/h
Temperatura: 11°C
Rocío: 11°C
Humedad: 100%
Barómetro: 1009 hPa
Resumen: Lluvia débil
Clouds: Muy nuboso
Visibility: 9 km
Cloud details: Few Clouds 671 m
Muy nuboso 1067 m
2018/11/19 00:30 LEGE 190030Z 36003KT 310V060 9000 -RA FEW022 BKN035 11/11 Q1009
 
LEAL - Alicante/El Alte, Spain
Distance from station: OSO 344km
Actualización: 19/11/2018 01:30
Lluvia débil, Muy nuboso
Lluvia débil, Muy nuboso
 Viento del NE
Viento: NE 19 km/h
Temperatura: 15°C
Rocío: 12°C
Humedad: 82%
Barómetro: 1001 hPa
Resumen: Lluvia débil
Clouds: Muy nuboso
Visibility: 10 km
Cloud details: Parcialmente nuboso 762 m
Muy nuboso 1524 m
2018/11/19 00:30 LEAL 190030Z 05010KT 9999 -RA SCT025 BKN050 15/12 Q1001 TEMPO 4000 SHRA FEW020CB
LEAM - Almeria Airport, Spain
Distance from station: SSO 56km
Actualización: 19/11/2018 01:30

 Viento del varies
Viento: varies 2 km/h
Temperatura: 14°C
Rocío: 11°C
Humedad: 82%
Barómetro: 1001 hPa
Visibility: 10 km
2018/11/19 00:30 LEAM 190030Z AUTO VRB01KT 9999 ////// 14/11 Q1001
 
LEZG - Zaragoza (mil/Ci, Spain
Distance from station: NO 431km
Actualización: 19/11/2018 01:30
Cubierto
Cubierto
 Viento del E
Viento: E 2 km/h
Temperatura: 11°C
Rocío: 9°C
Humedad: 88%
Barómetro: 1007 hPa
Clouds: Cubierto
Visibility: 10 km
Cloud details: Cubierto 914 m
2018/11/19 00:30 LEZG 190030Z 08001KT 9999 OVC030 11/09 Q1007
LEMD - Madrid/Barajas, Spain
Distance from station: ONO 234km
Actualización: 19/11/2018 01:30
Light drizzle, Cubierto
Light drizzle, Cubierto
 Viento del N
Viento: N 7 km/h
Temperatura: 9°C
Sensación frio: 8°C
Rocío: 9°C
Humedad: 100%
Barómetro: 1004 hPa
Resumen: Light Drizzle
Clouds: Cubierto
Visibility: 10 km
Cloud details: Few Clouds 671 m
Cubierto 1463 m
2018/11/19 00:30 LEMD 190030Z 35004KT 9999 -DZ FEW022 OVC048 09/09 Q1004 R88/29//95 TEMPO NSW
 
LEGR - Granada Airport, Spain
Distance from station: OSO 62km
Actualización: 19/11/2018 01:30
Muy nuboso
Muy nuboso
 Viento del calm
Viento: Calma
Temperatura: 9°C
Rocío: 9°C
Humedad: 100%
Barómetro: 1002 hPa
Clouds: Muy nuboso
Visibility: 10 km
Cloud details: Muy nuboso 1097 m
Muy nuboso 1280 m
2018/11/19 00:30 LEGR 190030Z AUTO 00000KT 9999 BKN036/// BKN042/// 09/09 Q1002
LEMG - Malaga (civ/Mil), Spain
Distance from station: OSO 227km
Actualización: 19/11/2018 01:37
Lluvia, Parcialmente nuboso
Lluvia, Parcialmente nuboso
 Viento del O
Viento: O 4 km/h
Temperatura: 14°C
Rocío: 13°C
Humedad: 94%
Barómetro: 1002 hPa
Resumen: Lluvia
Clouds: Parcialmente nuboso
Visibility: 9 km
Cloud details: Few Clouds 610 m
Parcialmente nuboso 1067 m
2018/11/19 00:37 LEMG 190037Z 28002KT 9000 RA FEW020 SCT035 14/13 Q1002 NOSIG
 
LEZL - Sevilla (civ/Mil, Spain
Distance from station: S 318km
Actualización: 19/11/2018 01:30
Cubierto
Cubierto
 Viento del S
Viento: S 13 km/h
Temperatura: 14°C
Rocío: 12°C
Humedad: 88%
Barómetro: 1000 hPa
Clouds: Cubierto
Visibility: 9 km
Cloud details: Muy nuboso 183 m
Cubierto 305 m
2018/11/19 00:30 LEZL 190030Z AUTO 19007KT 150V230 9000 BKN006/// OVC010/// 14/12 Q1000
LEVT - Vitoria, Spain
Distance from station: NO 226km
Actualización: 19/11/2018 01:30
Muy nuboso
Muy nuboso
 Viento del NNO
Viento: NNO 4 km/h
Temperatura: 10°C
Rocío: 6°C
Humedad: 76%
Barómetro: 1007 hPa
Clouds: Muy nuboso
Visibility: 10 km
Cloud details: Few Clouds 305 m
Muy nuboso 701 m
2018/11/19 00:30 LEVT 190030Z 34002KT 9999 FEW010 BKN023 10/06 Q1007
 
LEBB - Bilbao/Sondica, Spain
Distance from station: NNO 235km
Actualización: 19/11/2018 01:30
Despejado
Despejado
 Viento del SE
Viento: SE 20 km/h, Racha: 41 km/h
Temperatura: 13°C
Rocío: 8°C
Humedad: 72%
Barómetro: 1006 hPa
Clouds: Despejado
Visibility: 10 km
2018/11/19 00:30 LEBB 190030Z AUTO 13011G22KT 080V170 9999 NCD 13/08 Q1006
LESO - San Sebastian/Fu, Spain
Distance from station: N 231km
Actualización: 19/11/2018 01:30
Despejado
Despejado
 Viento del varies
Viento: varies 4 km/h
Temperatura: 8°C
Rocío: 7°C
Humedad: 93%
Barómetro: 1007 hPa
Clouds: Despejado
Visibility: 10 km
2018/11/19 00:30 LESO 190030Z AUTO VRB02KT 9999 NCD 08/07 Q1007
 
LEVD - Valladolid(Mil/C, Spain
Distance from station: ONO 239km
Actualización: 18/11/2018 21:30
NOT Current
Muy nuboso
Muy nuboso
 Viento del E
Viento: E 9 km/h
Temperatura: 9°C
Sensación frio: 7°C
Rocío: 8°C
Humedad: 94%
Barómetro: 1003 hPa
Clouds: Muy nuboso
Visibility: 10 km
Cloud details: Muy nuboso 549 m
Muy nuboso 792 m
2018/11/18 20:30 LEVD 182030Z 09005KT 9999 BKN018 BKN026 09/08 Q1003
LESA - Salamanca (civ/M, Spain
Distance from station: ONO 349km
Actualización: 19/11/2018 01:30
Despejado
Despejado
 Viento del E
Viento: E 9 km/h
Temperatura: 9°C
Sensación frio: 7°C
Rocío: 8°C
Humedad: 94%
Barómetro: 1002 hPa
Resumen: Despejado
Visibility: greater than 10 km
2018/11/19 00:30 LESA 190030Z AUTO 09005KT CAVOK 09/08 Q1002
 
LEXJ - Santander/Paraya, Spain
Distance from station: NNO 247km
Actualización: 19/11/2018 01:30
Parcialmente nuboso
Parcialmente nuboso
 Viento del NO
Viento: NO 2 km/h
Temperatura: 11°C
Rocío: 9°C
Humedad: 88%
Barómetro: 1004 hPa
Clouds: Parcialmente nuboso
Visibility: 6 km
2018/11/19 00:30 LEXJ 190030Z AUTO 31001KT 6000 NSC 11/09 Q1004
LEAS - Asturias/Aviles, Spain
Distance from station: NO 214km
Actualización: 19/11/2018 01:30
Despejado
Despejado
 Viento del SE
Viento: SE 9 km/h
Temperatura: 12°C
Rocío: 10°C
Humedad: 88%
Barómetro: 1002 hPa
Resumen: Despejado
Visibility: greater than 10 km
2018/11/19 00:30 LEAS 190030Z AUTO 13005KT 090V170 CAVOK 12/10 Q1002
 
LECO - La Coruna/Alvedr, Spain
Distance from station: ONO 222km
Actualización: 19/11/2018 01:30
Niebla, Cubierto
Niebla, Cubierto
 Viento del S
Viento: S 7 km/h
Temperatura: 8°C
Sensación frio: 7°C
Rocío: 8°C
Humedad: 100%
Barómetro: 1001 hPa
Resumen: Niebla
Clouds: Cubierto
Visibility: 0 km
Cloud details: Cubierto 30 m
2018/11/19 00:30 LECO 190030Z 18004KT 0200 R21/0550N R03/1700D FG VV001 08/08 Q1001 TEMPO 1500 BR
LEVX - Vigo/Peinador, Spain
Distance from station: O 214km
Actualización: 19/11/2018 01:30
Patches of fog, Lluvia débil, Muy nuboso
Patches of fog, Lluvia débil, Muy nuboso
 Viento del SO
Viento: SO 6 km/h
Temperatura: 13°C
Rocío: 12°C
Humedad: 94%
Barómetro: 1001 hPa
Resumen: Patches of fog, Lluvia débil
Clouds: Muy nuboso
Visibility: 5 km
Cloud details: Few Clouds 61 m
Muy nuboso 1067 m
2018/11/19 00:30 LEVX 190030Z 22003KT 5000 0700SE BCFG -RA FEW002 BKN035 13/12 Q1001 TEMPO 1500